This is the latest recevied weather packets stored in our database for station/object K4AVM-13. If no packets are shown the sender has not sent any weather packets the latest 10 day(s).
| Time | Temp. | Humidity | Pressure | Rain* | Wind** | Luminosity | Snow |
|---|---|---|---|---|---|---|---|
| 1777726270 | 11.11° C | 70% | 1015.3 hPa | 0 mm | - | 136 W/m² | - |
| 1777725966 | 11.11° C | 70% | 1015.2 hPa | 0 mm | - | 130 W/m² | - |
| 1777725663 | 11.11° C | 70% | 1015 hPa | 0 mm | - | 156 W/m² | - |
| 1777725362 | 11.11° C | 71% | 1015.4 hPa | 0 mm | - | 108 W/m² | - |
| 1777725058 | 11.11° C | 73% | 1015.2 hPa | 0 mm | - | 128 W/m² | - |
| 1777724755 | 10.56° C | 74% | 1015.1 hPa | 0 mm | - | 107 W/m² | - |
| 1777724452 | 11.11° C | 76% | 1015.1 hPa | 0 mm | - | 68 W/m² | - |
| 1777724149 | 10.56° C | 75% | 1015 hPa | 0 mm | - | 109 W/m² | - |
| 1777723847 | 10.56° C | 75% | 1014.9 hPa | 0 mm | - | 102 W/m² | - |
| 1777723543 | 10.56° C | 77% | 1014.9 hPa | 0 mm | - | 85 W/m² | - |
| 1777723240 | 10.56° C | 79% | 1014.8 hPa | 0 mm | - | 78 W/m² | - |
| 1777722938 | 10.56° C | 80% | 1014.9 hPa | 0 mm | - | 75 W/m² | - |
| 1777722634 | 10.56° C | 81% | 1014.9 hPa | 0 mm | - | 72 W/m² | - |
| 1777722330 | 10.56° C | 82% | 1015 hPa | 0 mm | - | 64 W/m² | - |
| 1777722027 | 10.56° C | 83% | 1015.1 hPa | 0 mm | - | 56 W/m² | - |
| 1777721725 | 10.56° C | 83% | 1015.1 hPa | 0 mm | - | 44 W/m² | - |
| 1777721424 | 10.56° C | 84% | 1015.2 hPa | 0 mm | - | 38 W/m² | - |
| 1777721121 | 10.56° C | 85% | 1015 hPa | 0 mm | - | 32 W/m² | - |
| 1777720818 | 10.56° C | 85% | 1015 hPa | 0 mm | - | 27 W/m² | - |
| 1777720515 | 10° C | 85% | 1015.1 hPa | 0 mm | - | 23 W/m² | - |
| 1777720213 | 10° C | 86% | 1015.1 hPa | 0 mm | - | 21 W/m² | - |
| 1777719910 | 10° C | 86% | 1015.1 hPa | 0 mm | - | 24 W/m² | - |
| 1777719608 | 10° C | 87% | 1015.1 hPa | 0 mm | - | 21 W/m² | - |
| 1777719305 | 10° C | 87% | 1015 hPa | 0 mm | - | 17 W/m² | - |
| 1777719002 | 10° C | 87% | 1014.9 hPa | 0 mm | - | 13 W/m² | - |
* Rain latest hour (hover to see other rain measurements)
** Current wind speed in m/s (hover to see current wind gust speed)